Nyngan, Australia
Current Conditions -  °F | °C
As of 9:00 AM on Sunday 26 Oct 2014 (Local Time) from YSDU Reporting Station
Clear Clear  
Wind Chill: 82°   Ceiling: Unl
Heat Index: 82°   Visibility: 6mi
Dew Point: 50°   Wind: 8mph
Humidity: 32%   Direction: 330°NNW
Pressure: 29.91"   Gusts: NA
Location:  31.56°S, 147.19°E
Report Text: YSDU 252200Z AUTO 33007KT 9999 // NCD 28/10 Q1013
Loading
Personal Weather Stations






























Interactive Weather Map
Tropical Storm Tracking
New forecast layout! Learn more

10-Day Weather Forecast

Advertisements
Track Severe Weather on mobile